Bloomfield Township, Michigan
Current Conditions -  °F | °C
As of 7:35 AM on Friday 21 Nov 2014 (Local Time) from KVLL Reporting Station
Clear Clear  
Wind Chill: -14°   Ceiling: Unl
Heat Index: -10°   Visibility: 10mi
Dew Point: -12°   Wind: 5mph
Humidity: 84%   Direction: 250°WSW
Pressure: 30.4"   Gusts: NA
Location:  42.5858°N, 83.2941°W
Report Text: KVLL 211235Z AUTO 25004KT 10SM CLR M10/M12 A3040 RMK AO2 T10991122
Loading
Personal Weather Stations






























Interactive Weather Map New forecast layout! Learn more

10-Day Weather Forecast

Advertisements
Track Severe Weather on mobile